createdAt,value
2022-08-11T00:00:32.917Z,0
2022-08-11T00:01:32.273Z,0
2022-08-11T00:02:32.917Z,0
2022-08-11T00:03:43.440Z,0
2022-08-11T00:04:32.832Z,0
2022-08-11T00:05:32.374Z,0
2022-08-11T00:06:32.884Z,0
2022-08-11T00:07:32.859Z,0
2022-08-11T00:08:32.874Z,0
2022-08-11T00:09:32.287Z,0
2022-08-11T00:10:32.902Z,0
2022-08-11T00:11:32.922Z,0
2022-08-11T00:12:32.844Z,0
2022-08-11T00:13:32.291Z,0
2022-08-11T00:14:36.897Z,0
2022-08-11T00:15:32.857Z,0
2022-08-11T00:16:32.906Z,0
2022-08-11T00:17:32.412Z,0
2022-08-11T00:18:32.891Z,0
2022-08-11T00:20:12.972Z,0
2022-08-11T00:20:32.922Z,0
2022-08-11T00:21:35.494Z,0
2022-08-11T00:22:33.150Z,0
2022-08-11T00:23:32.877Z,0
2022-08-11T00:24:32.890Z,0
2022-08-11T00:25:32.290Z,0
2022-08-11T00:26:32.863Z,0
2022-08-11T00:27:32.870Z,0
2022-08-11T00:28:32.848Z,0
2022-08-11T00:29:32.439Z,0
2022-08-11T00:30:32.878Z,0
2022-08-11T00:31:32.846Z,0
2022-08-11T00:32:32.871Z,0
2022-08-11T00:33:41.420Z,0
2022-08-11T00:34:32.880Z,0
2022-08-11T00:35:51.454Z,0
2022-08-11T00:36:32.891Z,0
2022-08-11T00:37:32.321Z,0
2022-08-11T00:38:32.874Z,0
2022-08-11T00:39:32.905Z,0
2022-08-11T00:40:32.869Z,0
2022-08-11T00:41:32.341Z,0
2022-08-11T00:42:32.985Z,0
2022-08-11T00:43:32.843Z,0
2022-08-11T00:44:32.849Z,0
2022-08-11T00:45:32.209Z,0
2022-08-11T00:46:32.865Z,0
2022-08-11T00:47:32.876Z,0
2022-08-11T00:48:32.855Z,0
2022-08-11T00:49:32.177Z,0
2022-08-11T00:50:32.857Z,0
2022-08-11T00:52:05.136Z,0
2022-08-11T00:52:32.920Z,0
2022-08-11T00:53:32.218Z,0
2022-08-11T00:54:33.245Z,0
2022-08-11T00:55:32.873Z,0
2022-08-11T00:56:32.859Z,0
2022-08-11T00:57:37.550Z,0
2022-08-11T00:58:32.832Z,0
2022-08-11T00:59:34.891Z,0
2022-08-11T01:00:33.932Z,0
2022-08-11T01:01:32.331Z,0
2022-08-11T01:02:32.904Z,0
2022-08-11T01:03:32.851Z,0
2022-08-11T01:04:32.871Z,0
2022-08-11T01:05:32.152Z,0
2022-08-11T01:06:33.031Z,0
2022-08-11T01:08:00.446Z,0
2022-08-11T01:08:32.977Z,0
2022-08-11T01:09:32.196Z,0
2022-08-11T01:10:32.838Z,0
2022-08-11T01:11:32.872Z,0
2022-08-11T01:12:32.959Z,0
2022-08-11T01:13:32.177Z,0
2022-08-11T01:14:34.356Z,0
2022-08-11T01:15:32.867Z,0
2022-08-11T01:16:32.918Z,0
2022-08-11T01:17:32.169Z,0
2022-08-11T01:18:32.860Z,0
2022-08-11T01:19:32.909Z,0
2022-08-11T01:20:45.325Z,0
2022-08-11T01:21:32.126Z,0
2022-08-11T01:22:32.936Z,0
2022-08-11T01:23:32.847Z,0
2022-08-11T01:24:32.863Z,0
2022-08-11T01:25:32.173Z,0
2022-08-11T01:26:32.820Z,0
2022-08-11T01:27:32.853Z,0
2022-08-11T01:28:32.886Z,0
2022-08-11T01:29:32.171Z,0
2022-08-11T01:30:32.956Z,0
2022-08-11T01:31:32.848Z,0
2022-08-11T01:32:32.898Z,0
2022-08-11T01:33:32.162Z,0
2022-08-11T01:34:32.867Z,0
2022-08-11T01:35:32.871Z,0
2022-08-11T01:36:32.857Z,0
2022-08-11T01:37:32.883Z,0
2022-08-11T01:38:32.824Z,0
2022-08-11T01:39:32.918Z,0
2022-08-11T01:40:33.129Z,0
2022-08-11T01:41:32.287Z,0
2022-08-11T01:42:33.093Z,0
2022-08-11T01:43:32.973Z,0
2022-08-11T01:44:33.015Z,0
2022-08-11T01:45:32.258Z,0
2022-08-11T01:46:33.033Z,0
2022-08-11T01:47:33.023Z,0
2022-08-11T01:48:32.978Z,0
2022-08-11T01:50:08.910Z,0
2022-08-11T01:50:32.943Z,0
2022-08-11T01:51:33.001Z,0
2022-08-11T01:52:34.858Z,0
2022-08-11T01:53:32.869Z,0
2022-08-11T01:54:32.886Z,0
2022-08-11T01:55:32.849Z,0
2022-08-11T01:56:32.888Z,0
2022-08-11T01:57:32.871Z,0
2022-08-11T01:58:43.632Z,0
2022-08-11T01:59:32.844Z,0
2022-08-11T02:00:33.114Z,0
2022-08-11T02:01:32.861Z,0
2022-08-11T02:02:32.971Z,0
2022-08-11T02:03:32.845Z,0
2022-08-11T02:04:33.003Z,0
2022-08-11T02:05:32.920Z,0
2022-08-11T02:06:32.860Z,0
2022-08-11T02:07:32.968Z,0
2022-08-11T02:08:33.715Z,0
2022-08-11T02:09:32.846Z,0
2022-08-11T02:10:36.372Z,0
2022-08-11T02:11:35.126Z,0
2022-08-11T02:12:32.862Z,0
2022-08-11T02:13:36.552Z,0
2022-08-11T02:14:32.864Z,0
2022-08-11T02:15:32.858Z,0
2022-08-11T02:16:32.862Z,0
2022-08-11T02:17:33.517Z,0
2022-08-11T02:18:32.905Z,0
2022-08-11T02:19:32.853Z,0
2022-08-11T02:20:32.894Z,0
2022-08-11T02:21:32.870Z,0
2022-08-11T02:22:32.976Z,0
2022-08-11T02:24:04.126Z,0
2022-08-11T02:24:32.935Z,0
2022-08-11T02:25:33.037Z,0
2022-08-11T02:26:32.849Z,0
2022-08-11T02:27:32.830Z,0
2022-08-11T02:28:38.382Z,0
2022-08-11T02:29:32.862Z,0
2022-08-11T02:30:32.883Z,0
2022-08-11T02:32:24.953Z,0
2022-08-11T02:32:32.935Z,0
2022-08-11T02:33:32.885Z,0
2022-08-11T02:34:32.893Z,0
2022-08-11T02:35:32.858Z,0
2022-08-11T02:36:32.850Z,0
2022-08-11T02:37:32.881Z,0
2022-08-11T02:38:32.868Z,0
2022-08-11T02:39:32.905Z,0
2022-08-11T02:40:32.855Z,0
2022-08-11T02:41:32.842Z,0
2022-08-11T02:42:36.157Z,0
2022-08-11T02:43:32.832Z,0
2022-08-11T02:44:32.862Z,0
2022-08-11T02:45:32.913Z,0
2022-08-11T02:46:32.852Z,0
2022-08-11T02:47:32.863Z,0
2022-08-11T02:48:32.854Z,0
2022-08-11T02:49:32.922Z,0
2022-08-11T02:50:32.862Z,0
2022-08-11T02:51:32.862Z,0
2022-08-11T02:52:33.014Z,0
2022-08-11T02:53:32.890Z,0
2022-08-11T02:54:32.894Z,0
2022-08-11T02:55:57.515Z,0
2022-08-11T02:56:32.881Z,0
2022-08-11T02:57:32.877Z,0
2022-08-11T02:58:32.817Z,0
2022-08-11T02:59:32.936Z,0
2022-08-11T03:00:32.911Z,0
2022-08-11T03:01:32.920Z,0.36
2022-08-11T03:02:32.887Z,0
2022-08-11T03:03:32.876Z,0.36
2022-08-11T03:04:37.587Z,0
2022-08-11T03:05:32.879Z,0
2022-08-11T03:06:32.843Z,0
2022-08-11T03:07:32.977Z,0
2022-08-11T03:08:32.850Z,0
2022-08-11T03:09:32.849Z,0.36
2022-08-11T03:10:32.988Z,0.36
2022-08-11T03:11:32.950Z,1.22
2022-08-11T03:12:33.177Z,0.85
2022-08-11T03:13:33.064Z,0.85
2022-08-11T03:14:32.906Z,0.85
2022-08-11T03:15:32.983Z,2.08
2022-08-11T03:16:32.919Z,0.85
2022-08-11T03:17:33.002Z,0.85
2022-08-11T03:18:32.981Z,0.85
2022-08-11T03:19:33.038Z,2.08
2022-08-11T03:20:33.495Z,2.08
2022-08-11T03:22:01.277Z,1.71
2022-08-11T03:22:33.144Z,2.57
2022-08-11T03:23:32.970Z,1.71
2022-08-11T03:24:32.876Z,2.94
2022-08-11T03:25:32.924Z,2.94
2022-08-11T03:26:33.007Z,2.94
2022-08-11T03:27:33.023Z,2.57
2022-08-11T03:28:32.979Z,2.57
2022-08-11T03:29:32.849Z,3.79
2022-08-11T03:30:32.891Z,3.43
2022-08-11T03:31:32.867Z,3.79
2022-08-11T03:32:32.915Z,3.79
2022-08-11T03:33:32.835Z,3.43
2022-08-11T03:34:32.862Z,2.94
2022-08-11T03:35:32.954Z,4.28
2022-08-11T03:36:33.304Z,3.79
2022-08-11T03:37:32.897Z,3.43
2022-08-11T03:38:33.151Z,4.77
2022-08-11T03:39:33.004Z,4.28
2022-08-11T03:40:32.856Z,5.14
2022-08-11T03:42:02.394Z,4.77
2022-08-11T03:42:33.036Z,4.77
2022-08-11T03:43:33.014Z,4.77
2022-08-11T03:44:32.860Z,4.77
2022-08-11T03:45:36.224Z,5.14
2022-08-11T03:46:32.856Z,5.63
2022-08-11T03:47:32.881Z,5.63
2022-08-11T03:48:32.878Z,5.14
2022-08-11T03:49:32.880Z,5.99
2022-08-11T03:50:32.860Z,5.63
2022-08-11T03:51:51.509Z,5.63
2022-08-11T03:52:32.972Z,5.63
2022-08-11T03:53:32.939Z,5.99
2022-08-11T03:54:32.835Z,5.99
2022-08-11T03:55:32.874Z,6.48
2022-08-11T03:56:32.830Z,6.85
2022-08-11T03:57:32.855Z,7.34
2022-08-11T03:58:35.869Z,7.34
2022-08-11T03:59:32.864Z,8.19
2022-08-11T04:00:32.861Z,8.19
2022-08-11T04:01:32.925Z,8.19
2022-08-11T04:02:33.019Z,7.7
2022-08-11T04:03:32.869Z,8.56
2022-08-11T04:04:32.977Z,8.56
2022-08-11T04:05:32.894Z,9.54
2022-08-11T04:06:32.837Z,9.91
2022-08-11T04:07:32.843Z,10.39
2022-08-11T04:08:34.115Z,10.77
2022-08-11T04:09:32.833Z,10.77
2022-08-11T04:10:32.824Z,11.25
2022-08-11T04:11:32.911Z,12.48
2022-08-11T04:12:36.536Z,12.48
2022-08-11T04:13:32.868Z,12.97
2022-08-11T04:14:32.847Z,12.48
2022-08-11T04:15:32.855Z,12.97
2022-08-11T04:16:32.849Z,12.97
2022-08-11T04:17:32.936Z,12.48
2022-08-11T04:18:32.870Z,12.97
2022-08-11T04:19:32.847Z,12.97
2022-08-11T04:20:32.864Z,12.97
2022-08-11T04:21:32.930Z,13.33
2022-08-11T04:22:32.898Z,13.82
2022-08-11T04:24:13.016Z,12.97
2022-08-11T04:24:38.680Z,12.97
2022-08-11T04:25:32.885Z,12.11
2022-08-11T04:26:34.370Z,12.11
2022-08-11T04:27:37.627Z,11.62
2022-08-11T04:28:32.872Z,9.91
2022-08-11T04:29:36.453Z,11.25
2022-08-11T04:30:32.909Z,9.54
2022-08-11T04:31:51.032Z,9.91
2022-08-11T04:32:32.985Z,10.77
2022-08-11T04:33:34.311Z,10.39
2022-08-11T04:34:33.915Z,9.54
2022-08-11T04:35:32.855Z,10.39
2022-08-11T04:36:32.818Z,10.39
2022-08-11T04:37:32.849Z,10.77
2022-08-11T04:38:32.873Z,10.77
2022-08-11T04:39:32.932Z,10.77
2022-08-11T04:40:32.798Z,11.25
2022-08-11T04:41:32.863Z,11.62
2022-08-11T04:42:32.994Z,11.25
2022-08-11T04:43:32.828Z,12.11
2022-08-11T04:44:32.868Z,12.48
2022-08-11T04:45:32.849Z,12.48
2022-08-11T04:46:32.883Z,13.33
2022-08-11T04:47:32.888Z,15.17
2022-08-11T04:48:32.887Z,15.53
2022-08-11T04:49:33.374Z,16.02
2022-08-11T04:50:32.843Z,18.6
2022-08-11T04:51:32.872Z,18.6
2022-08-11T04:52:38.107Z,18.11
2022-08-11T04:53:32.886Z,18.11
2022-08-11T04:54:32.842Z,18.6
2022-08-11T04:55:32.879Z,18.11
2022-08-11T04:56:32.861Z,19.45
2022-08-11T04:57:32.824Z,19.08
2022-08-11T04:58:32.854Z,19.45
2022-08-11T04:59:32.827Z,19.08
2022-08-11T05:00:32.843Z,19.45
2022-08-11T05:01:36.996Z,19.45
2022-08-11T05:02:32.906Z,19.45
2022-08-11T05:03:32.872Z,19.45
2022-08-11T05:04:32.889Z,19.08
2022-08-11T05:05:32.832Z,19.45
2022-08-11T05:06:32.847Z,20.31
2022-08-11T05:07:32.891Z,19.94
2022-08-11T05:08:32.847Z,24.22
2022-08-11T05:09:32.887Z,23.85
2022-08-11T05:10:32.867Z,20.31
2022-08-11T05:11:32.834Z,20.8
2022-08-11T05:12:32.886Z,20.8
2022-08-11T05:13:32.834Z,31.19
2022-08-11T05:14:32.861Z,39.88
2022-08-11T05:15:32.868Z,29.85
2022-08-11T05:16:32.870Z,22.51
2022-08-11T05:17:32.869Z,22.02
2022-08-11T05:18:32.886Z,22.87
2022-08-11T05:19:32.896Z,58.97
2022-08-11T05:20:32.840Z,120.13
2022-08-11T05:21:44.485Z,137.02
2022-08-11T05:22:32.931Z,139.58
2022-08-11T05:23:32.822Z,140.07
2022-08-11T05:24:32.867Z,142.27
2022-08-11T05:26:42.670Z,144.36
2022-08-11T05:26:45.981Z,146.19
2022-08-11T05:27:32.839Z,155.73
2022-08-11T05:28:32.850Z,153.53
2022-08-11T05:29:32.833Z,157.44
2022-08-11T05:30:34.666Z,161.73
2022-08-11T05:31:32.862Z,163.07
2022-08-11T05:32:32.899Z,170.41
2022-08-11T05:33:32.864Z,166.99
2022-08-11T05:34:32.901Z,169.07
2022-08-11T05:36:00.148Z,176.04
2022-08-11T05:36:32.901Z,173.84
2022-08-11T05:37:32.828Z,175.67
2022-08-11T05:38:32.912Z,176.9
2022-08-11T05:39:36.203Z,179.1
2022-08-11T05:40:32.836Z,182.53
2022-08-11T05:41:32.827Z,184.73
2022-08-11T05:42:32.859Z,193.05
2022-08-11T05:43:32.837Z,191.21
2022-08-11T05:44:32.828Z,195.61
2022-08-11T05:45:57.323Z,199.9
2022-08-11T05:46:32.931Z,202.59
2022-08-11T05:47:32.875Z,203.44
2022-08-11T05:48:32.875Z,205.52
2022-08-11T05:49:32.881Z,208.22
2022-08-11T05:50:33.311Z,208.22
2022-08-11T05:51:32.827Z,205.15
2022-08-11T05:52:32.818Z,210.78
2022-08-11T05:53:43.682Z,212.98
2022-08-11T05:54:32.853Z,212.13
2022-08-11T05:55:32.840Z,204.66
2022-08-11T05:56:32.837Z,203.44
2022-08-11T05:57:49.866Z,206.38
2022-08-11T05:58:36.968Z,208.22
2022-08-11T05:59:32.846Z,218.98
2022-08-11T06:00:32.843Z,229.01
2022-08-11T06:01:33.007Z,234.64
2022-08-11T06:02:32.934Z,239.41
2022-08-11T06:03:32.857Z,243.69
2022-08-11T06:04:32.861Z,244.18
2022-08-11T06:05:32.858Z,245.52
2022-08-11T06:06:32.827Z,249.44
2022-08-11T06:07:49.448Z,250.66
2022-08-11T06:08:32.959Z,253.73
2022-08-11T06:09:32.817Z,255.07
2022-08-11T06:10:32.882Z,248.95
2022-08-11T06:11:43.792Z,261.92
2022-08-11T06:12:32.907Z,162.22
2022-08-11T06:13:32.841Z,249.81
2022-08-11T06:14:32.989Z,203.81
2022-08-11T06:15:32.860Z,115.36
2022-08-11T06:16:32.808Z,111.82
2022-08-11T06:17:39.033Z,151.33
2022-08-11T06:18:32.865Z,120.5
2022-08-11T06:19:32.839Z,73.65
2022-08-11T06:20:32.819Z,83.68
2022-08-11T06:21:32.840Z,64.1
2022-08-11T06:22:33.031Z,75.85
2022-08-11T06:23:32.838Z,64.1
2022-08-11T06:24:32.835Z,142.27
2022-08-11T06:25:33.028Z,79.76
2022-08-11T06:26:40.791Z,54.19
2022-08-11T06:27:32.905Z,154.75
2022-08-11T06:28:32.861Z,121.85
2022-08-11T06:29:38.137Z,91.51
2022-08-11T06:30:32.869Z,86.24
2022-08-11T06:31:32.844Z,250.3
2022-08-11T06:32:32.935Z,95.42
2022-08-11T06:33:33.408Z,137.51
2022-08-11T06:34:32.917Z,77.19
2022-08-11T06:35:32.823Z,54.19
2022-08-11T06:36:32.827Z,42.45
2022-08-11T06:37:36.352Z,40.73
2022-08-11T06:38:32.835Z,41.1
2022-08-11T06:39:32.929Z,44.16
2022-08-11T06:40:32.821Z,42.45
2022-08-11T06:41:32.838Z,43.31
2022-08-11T06:42:32.985Z,42.45
2022-08-11T06:43:32.836Z,43.31
2022-08-11T06:44:32.842Z,44.16
2022-08-11T06:45:32.846Z,46.36
2022-08-11T06:46:32.878Z,45.87
2022-08-11T06:47:32.866Z,43.31
2022-08-11T06:48:32.862Z,44.65
2022-08-11T06:49:32.854Z,50.28
2022-08-11T06:50:32.846Z,46.36
2022-08-11T06:51:32.809Z,45.02
2022-08-11T06:52:45.205Z,61.17
2022-08-11T06:53:32.833Z,51.99
2022-08-11T06:54:32.823Z,47.22
2022-08-11T06:55:56.596Z,62.88
2022-08-11T06:56:32.873Z,117.07
2022-08-11T06:57:32.829Z,118.42
2022-08-11T06:58:32.868Z,96.65
2022-08-11T06:59:32.851Z,92.73
2022-08-11T07:00:32.902Z,150.47
2022-08-11T07:01:32.917Z,74.99
2022-08-11T07:02:32.981Z,91.51
2022-08-11T07:03:32.953Z,79.76
2022-08-11T07:04:32.926Z,64.59
2022-08-11T07:05:32.833Z,48.07
2022-08-11T07:06:39.893Z,115.36
2022-08-11T07:07:32.894Z,56.76
2022-08-11T07:08:33.938Z,150.47
2022-08-11T07:09:32.925Z,74.5
2022-08-11T07:10:32.813Z,51.14
2022-08-11T07:11:32.836Z,106.68
2022-08-11T07:12:32.913Z,89.31
2022-08-11T07:13:38.255Z,45.51
2022-08-11T07:14:37.770Z,91.02
2022-08-11T07:16:12.206Z,47.71
2022-08-11T07:16:32.982Z,57.62
2022-08-11T07:17:32.846Z,76.34
2022-08-11T07:18:32.894Z,47.71
2022-08-11T07:19:32.970Z,130.04
2022-08-11T07:20:32.934Z,58.97
2022-08-11T07:22:00.558Z,258.98
2022-08-11T07:22:33.010Z,129.19
2022-08-11T07:23:32.857Z,210.29
2022-08-11T07:24:58.626Z,437.23
2022-08-11T07:25:32.861Z,406.03
2022-08-11T07:26:32.886Z,457.17
2022-08-11T07:27:35.604Z,460.59
2022-08-11T07:28:32.838Z,463.28
2022-08-11T07:29:32.858Z,471.48
2022-08-11T07:30:32.833Z,475.4
2022-08-11T07:31:32.869Z,479.31
2022-08-11T07:32:32.886Z,480.17
2022-08-11T07:34:07.587Z,485.43
2022-08-11T07:34:32.870Z,491.42
2022-08-11T07:35:32.832Z,497.91
2022-08-11T07:36:32.808Z,500.96
2022-08-11T07:37:32.825Z,503.16
2022-08-11T07:38:32.829Z,507.08
2022-08-11T07:39:32.905Z,510.14
2022-08-11T07:40:32.816Z,510.99
2022-08-11T07:41:32.925Z,516.62
2022-08-11T07:42:32.885Z,518.82
2022-08-11T07:43:32.855Z,521.76
2022-08-11T07:44:35.273Z,527.51
2022-08-11T07:45:32.861Z,531.3
2022-08-11T07:46:32.805Z,533.14
2022-08-11T07:47:32.833Z,535.22
2022-08-11T07:48:32.842Z,537.91
2022-08-11T07:49:32.841Z,543.05
2022-08-11T07:50:32.862Z,543.05
2022-08-11T07:51:32.816Z,548.67
2022-08-11T07:52:32.944Z,553.08
2022-08-11T07:53:32.809Z,554.79
2022-08-11T07:54:33.623Z,555.65
2022-08-11T07:55:50.918Z,558.71
2022-08-11T07:56:55.496Z,560.42
2022-08-11T07:57:53.234Z,562.99
2022-08-11T07:58:44.897Z,562.62
2022-08-11T08:00:00.116Z,566.91
2022-08-11T08:00:32.942Z,570.82
2022-08-11T08:01:32.913Z,569.96
2022-08-11T08:02:32.854Z,575.22
2022-08-11T08:03:32.847Z,577.79
2022-08-11T08:04:32.818Z,580.85
2022-08-11T08:05:32.997Z,582.08
2022-08-11T08:06:36.201Z,585.99
2022-08-11T08:07:32.824Z,589.53
2022-08-11T08:08:32.885Z,590.39
2022-08-11T08:09:32.831Z,594.67
2022-08-11T08:10:32.808Z,595.53
2022-08-11T08:11:32.846Z,598.22
2022-08-11T08:12:32.917Z,598.59
2022-08-11T08:13:32.893Z,600.79
2022-08-11T08:14:32.861Z,600.3
2022-08-11T08:15:32.858Z,605.07
2022-08-11T08:16:32.858Z,609.48
2022-08-11T08:17:32.892Z,609.84
2022-08-11T08:18:32.796Z,613.39
2022-08-11T08:19:32.867Z,614.25
2022-08-11T08:20:32.836Z,613.76
2022-08-11T08:21:32.918Z,616.45
2022-08-11T08:22:48.364Z,617.31
2022-08-11T08:23:39.544Z,622.08
2022-08-11T08:24:43.514Z,621.59
2022-08-11T08:25:47.543Z,626.36
2022-08-11T08:26:51.993Z,620.24
2022-08-11T08:27:55.518Z,635.53
2022-08-11T08:28:59.548Z,635.9
2022-08-11T08:30:03.892Z,338.75
2022-08-11T08:31:07.515Z,639.33
2022-08-11T08:32:11.532Z,472.34
2022-08-11T08:33:15.572Z,173.84
2022-08-11T08:34:19.546Z,637.62
2022-08-11T08:35:23.486Z,638.11
2022-08-11T08:36:27.726Z,641.53
2022-08-11T08:37:46.009Z,508.43
2022-08-11T08:38:32.924Z,645.07
2022-08-11T08:39:32.875Z,649.85
2022-08-11T08:40:32.841Z,650.21
2022-08-11T08:41:32.855Z,654.99
2022-08-11T08:42:32.865Z,502.68
2022-08-11T08:43:32.879Z,622.45
2022-08-11T08:44:38.947Z,664.53
2022-08-11T08:45:32.895Z,663.18
2022-08-11T08:46:32.812Z,668.45
2022-08-11T08:47:42.265Z,670.16
2022-08-11T08:48:32.822Z,672.85
2022-08-11T08:49:32.808Z,675.79
2022-08-11T08:50:32.846Z,677.99
2022-08-11T08:52:01.130Z,675.79
2022-08-11T08:52:35.930Z,674.56
2022-08-11T08:53:32.797Z,666.24
2022-08-11T08:54:32.904Z,260.69
2022-08-11T08:55:32.803Z,598.22
2022-08-11T08:56:32.823Z,661.11
2022-08-11T08:57:39.042Z,664.16
2022-08-11T08:58:32.882Z,670.16
2022-08-11T08:59:47.565Z,396.49
2022-08-11T09:00:32.913Z,687.16
2022-08-11T09:01:32.878Z,694.01
2022-08-11T09:02:43.423Z,697.56
2022-08-11T09:04:02.938Z,701.84
2022-08-11T09:04:33.000Z,700.5
2022-08-11T09:05:32.846Z,700.99
2022-08-11T09:06:32.803Z,675.41
2022-08-11T09:07:38.835Z,233.29
2022-08-11T09:08:32.840Z,74.5
2022-08-11T09:09:32.903Z,70.71
2022-08-11T09:10:32.949Z,181.3
2022-08-11T09:11:32.863Z,64.59
2022-08-11T09:12:38.072Z,59.82
2022-08-11T09:13:32.828Z,66.31
2022-08-11T09:14:32.859Z,109.73
2022-08-11T09:15:33.056Z,70.22
2022-08-11T09:16:32.838Z,312.69
2022-08-11T09:17:32.786Z,231.58
2022-08-11T09:18:33.865Z,359.18
2022-08-11T09:19:32.817Z,138.36
2022-08-11T09:20:32.818Z,469.28
2022-08-11T09:21:39.229Z,89.31
2022-08-11T09:22:32.852Z,58.48
2022-08-11T09:24:06.757Z,180.44
2022-08-11T09:24:32.897Z,59.82
2022-08-11T09:25:32.817Z,288.47
2022-08-11T09:26:32.900Z,93.58
2022-08-11T09:27:32.896Z,137.87
2022-08-11T09:28:32.847Z,99.7
2022-08-11T09:29:32.813Z,55.05
2022-08-11T09:30:32.836Z,54.56
2022-08-11T09:31:38.695Z,79.76
2022-08-11T09:32:32.793Z,93.58
2022-08-11T09:33:32.849Z,84.53
2022-08-11T09:34:32.829Z,81.1
2022-08-11T09:35:32.825Z,53.7
2022-08-11T09:36:32.860Z,259.84
2022-08-11T09:37:55.385Z,363.09
2022-08-11T09:38:32.967Z,115.73
2022-08-11T09:39:33.096Z,117.07
2022-08-11T09:40:32.859Z,74.5
2022-08-11T09:42:00.441Z,55.05
2022-08-11T09:42:33.049Z,89.31
2022-08-11T09:43:32.866Z,57.62
2022-08-11T09:44:32.838Z,55.9
2022-08-11T09:45:34.603Z,56.76
2022-08-11T09:46:32.836Z,68.02
2022-08-11T09:47:32.922Z,124.05
2022-08-11T09:48:32.863Z,48.07
2022-08-11T09:49:32.810Z,58.11
2022-08-11T09:50:32.826Z,53.7
2022-08-11T09:51:32.816Z,57.25
2022-08-11T09:52:32.827Z,55.41
2022-08-11T09:53:36.826Z,262.41
2022-08-11T09:54:32.845Z,55.41
2022-08-11T09:55:32.853Z,174.33
2022-08-11T09:56:32.820Z,150.47
2022-08-11T09:57:32.856Z,101.05
2022-08-11T09:58:42.376Z,183.87
2022-08-11T09:59:32.835Z,50.65
2022-08-11T10:00:32.869Z,170.9
2022-08-11T10:01:32.917Z,47.71
2022-08-11T10:02:33.213Z,60.19
2022-08-11T10:03:32.791Z,109.73
2022-08-11T10:04:32.848Z,49.79
2022-08-11T10:05:32.819Z,129.19
2022-08-11T10:06:34.348Z,151.33
2022-08-11T10:07:32.794Z,62.39
2022-08-11T10:08:32.838Z,62.88
2022-08-11T10:09:32.830Z,46.73
2022-08-11T10:10:32.921Z,74.14
2022-08-11T10:11:32.826Z,126.12
2022-08-11T10:12:32.855Z,76.34
2022-08-11T10:14:30.573Z,96.65
2022-08-11T10:14:34.992Z,53.7
2022-08-11T10:15:32.876Z,63.73
2022-08-11T10:16:32.862Z,55.9
2022-08-11T10:17:32.909Z,46.36
2022-08-11T10:18:32.795Z,49.42
2022-08-11T10:19:32.809Z,67.65
2022-08-11T10:20:32.855Z,48.07
2022-08-11T10:21:32.789Z,61.17
2022-08-11T10:22:42.989Z,107.04
2022-08-11T10:23:32.828Z,71.07
2022-08-11T10:24:32.829Z,277.58
2022-08-11T10:25:32.889Z,46.36
2022-08-11T10:26:32.882Z,68.02
2022-08-11T10:28:17.717Z,49.42
2022-08-11T10:28:49.706Z,51.14
2022-08-11T10:29:37.495Z,91.87
2022-08-11T10:30:33.022Z,53.7
2022-08-11T10:31:39.566Z,44.65
2022-08-11T10:32:32.850Z,44.65
2022-08-11T10:33:36.566Z,46.36
2022-08-11T10:34:32.810Z,48.07
2022-08-11T10:35:32.864Z,44.16
2022-08-11T10:36:32.796Z,43.31
2022-08-11T10:38:06.642Z,66.31
2022-08-11T10:38:32.874Z,55.05
2022-08-11T10:39:32.917Z,58.97
2022-08-11T10:40:32.874Z,62.39
2022-08-11T10:41:32.802Z,43.8
2022-08-11T10:42:55.146Z,42.94
2022-08-11T10:44:01.652Z,46.73
2022-08-11T10:44:32.921Z,44.16
2022-08-11T10:45:32.831Z,44.65
2022-08-11T10:46:32.781Z,44.16
2022-08-11T10:47:32.804Z,46.36
2022-08-11T10:48:32.803Z,57.25
2022-08-11T10:49:32.810Z,42.94
2022-08-11T10:50:32.884Z,77.19
2022-08-11T10:51:50.714Z,51.14
2022-08-11T10:52:33.658Z,70.71
2022-08-11T10:53:32.854Z,48.07
2022-08-11T10:54:32.935Z,81.48
2022-08-11T10:55:32.820Z,41.96
2022-08-11T10:56:34.053Z,42.94
2022-08-11T10:57:32.885Z,47.71
2022-08-11T10:58:33.364Z,42.45
2022-08-11T10:59:32.898Z,41.96
2022-08-11T11:00:32.831Z,47.71
2022-08-11T11:01:33.183Z,51.14
2022-08-11T11:02:32.801Z,109.24
2022-08-11T11:03:32.809Z,66.31
2022-08-11T11:04:34.082Z,91.87
2022-08-11T11:05:32.887Z,70.22
2022-08-11T11:06:32.866Z,79.76
2022-08-11T11:07:32.855Z,102.27
2022-08-11T11:08:32.911Z,223.75
2022-08-11T11:09:32.862Z,124.9
2022-08-11T11:10:32.842Z,242.47
2022-08-11T11:11:32.846Z,42.94
2022-08-11T11:12:33.077Z,48.56
2022-08-11T11:13:33.193Z,42.94
2022-08-11T11:14:32.840Z,73.65
2022-08-11T11:15:32.801Z,129.19
2022-08-11T11:16:32.903Z,230.24
2022-08-11T11:17:32.804Z,155.73
2022-08-11T11:18:32.800Z,105.82
2022-08-11T11:19:32.852Z,182.15
2022-08-11T11:20:36.078Z,71.93
2022-08-11T11:21:32.811Z,129.19
2022-08-11T11:22:32.791Z,243.69
2022-08-11T11:23:32.824Z,158.3
2022-08-11T11:24:32.963Z,120.5
2022-08-11T11:25:32.852Z,362.6
2022-08-11T11:26:32.804Z,97.13
2022-08-11T11:27:32.903Z,62.39
2022-08-11T11:28:33.340Z,46.73
2022-08-11T11:29:32.861Z,45.02
2022-08-11T11:30:32.941Z,59.82
2022-08-11T11:31:32.824Z,58.11
2022-08-11T11:32:32.877Z,85.02
2022-08-11T11:33:32.798Z,96.27
2022-08-11T11:34:32.821Z,86.73
2022-08-11T11:35:32.864Z,172.61
2022-08-11T11:36:33.629Z,146.19
2022-08-11T11:37:32.807Z,186.93
2022-08-11T11:38:32.784Z,147.9
2022-08-11T11:39:32.937Z,111.44
2022-08-11T11:40:32.863Z,83.68
2022-08-11T11:41:32.852Z,140.07
2022-08-11T11:42:32.837Z,56.76
2022-08-11T11:43:33.293Z,201.24
2022-08-11T11:44:32.820Z,367.37
2022-08-11T11:45:32.818Z,46.36
2022-08-11T11:46:32.772Z,95.79
2022-08-11T11:47:32.783Z,104.96
2022-08-11T11:48:32.799Z,312.32
2022-08-11T11:49:32.799Z,424.63
2022-08-11T11:50:33.167Z,474.54
2022-08-11T11:51:32.884Z,556.99
2022-08-11T11:52:32.895Z,148.76
2022-08-11T11:53:32.806Z,253.73
2022-08-11T11:54:32.850Z,103.61
2022-08-11T11:55:32.861Z,160.02
2022-08-11T11:56:33.821Z,169.56
2022-08-11T11:57:32.839Z,140.07
2022-08-11T11:58:32.841Z,87.1
2022-08-11T11:59:32.815Z,79.76
2022-08-11T12:00:33.698Z,60.19
2022-08-11T12:01:32.845Z,287.98
2022-08-11T12:02:32.825Z,68.87
2022-08-11T12:03:32.962Z,258.98
2022-08-11T12:04:32.959Z,53.34
2022-08-11T12:05:32.793Z,677.13
2022-08-11T12:06:32.795Z,278.07
2022-08-11T12:07:32.811Z,224.61
2022-08-11T12:08:32.839Z,90.16
2022-08-11T12:09:32.806Z,413.74
2022-08-11T12:10:32.852Z,89.31
2022-08-11T12:11:32.803Z,458.52
2022-08-11T12:12:32.852Z,550.88
2022-08-11T12:13:32.789Z,270.24
2022-08-11T12:14:32.799Z,458.03
2022-08-11T12:16:31.033Z,391.23
2022-08-11T12:16:36.374Z,559.08
2022-08-11T12:17:32.780Z,314.03
2022-08-11T12:18:32.800Z,273.3
2022-08-11T12:19:35.825Z,220.69
2022-08-11T12:20:34.293Z,449.34
2022-08-11T12:21:32.842Z,505.37
2022-08-11T12:22:32.816Z,341.32
2022-08-11T12:23:32.834Z,476.25
2022-08-11T12:24:32.840Z,643.73
2022-08-11T12:25:32.887Z,441.51
2022-08-11T12:26:32.819Z,331.78
2022-08-11T12:27:32.874Z,467.2
2022-08-11T12:28:32.814Z,641.53
2022-08-11T12:29:32.813Z,651.56
2022-08-11T12:30:32.892Z,425.11
2022-08-11T12:31:32.793Z,436.37
2022-08-11T12:32:32.941Z,636.76
2022-08-11T12:33:35.168Z,469.77
2022-08-11T12:34:32.836Z,325.78
2022-08-11T12:35:32.804Z,538.77
2022-08-11T12:36:32.798Z,508.43
2022-08-11T12:37:32.809Z,516.13
2022-08-11T12:38:32.810Z,493.13
2022-08-11T12:40:16.975Z,548.31
2022-08-11T12:40:43.227Z,549.16
2022-08-11T12:41:33.015Z,620.24
2022-08-11T12:42:32.785Z,654.62
2022-08-11T12:43:38.416Z,632.84
2022-08-11T12:44:32.853Z,638.11
2022-08-11T12:45:32.796Z,643.73
2022-08-11T12:46:32.856Z,639.33
2022-08-11T12:47:32.818Z,625.01
2022-08-11T12:48:59.027Z,634.19
2022-08-11T12:49:32.924Z,623.79
2022-08-11T12:50:32.792Z,626.85
2022-08-11T12:51:32.789Z,634.55
2022-08-11T12:52:32.941Z,638.47
2022-08-11T12:53:32.842Z,643.73
2022-08-11T12:54:32.831Z,643.73
2022-08-11T12:55:32.827Z,645.94
2022-08-11T12:56:32.867Z,641.16
2022-08-11T12:57:37.476Z,635.9
2022-08-11T12:58:32.769Z,622.08
2022-08-11T12:59:32.823Z,594.31
2022-08-11T13:00:32.899Z,619.38
2022-08-11T13:01:33.051Z,623.79
2022-08-11T13:02:33.980Z,183.5
2022-08-11T13:03:32.799Z,596.39
2022-08-11T13:04:32.796Z,609.48
2022-08-11T13:05:33.080Z,601.65
2022-08-11T13:06:32.780Z,596.02
2022-08-11T13:07:50.908Z,605.93
2022-08-11T13:08:32.876Z,591.25
2022-08-11T13:09:32.826Z,293.24
2022-08-11T13:10:32.799Z,559.57
2022-08-11T13:11:55.488Z,565.68